sensor_id;sensor_type;location;lat;lon;timestamp;P1;durP1;ratioP1;P2;durP2;ratioP2
48925;SDS011;39838;59.938;30.642;2023-04-01T00:01:07;6.05;;;3.95;;
48925;SDS011;39838;59.938;30.642;2023-04-01T00:03:34;6.20;;;3.92;;
48925;SDS011;39838;59.938;30.642;2023-04-01T00:06:02;6.25;;;4.32;;
48925;SDS011;39838;59.938;30.642;2023-04-01T00:08:30;5.22;;;4.00;;
48925;SDS011;39838;59.938;30.642;2023-04-01T00:10:57;5.97;;;4.07;;
48925;SDS011;39838;59.938;30.642;2023-04-01T00:13:25;5.90;;;4.13;;
48925;SDS011;39838;59.938;30.642;2023-04-01T00:15:54;7.15;;;4.20;;
48925;SDS011;39838;59.938;30.642;2023-04-01T00:18:22;5.88;;;4.00;;
48925;SDS011;39838;59.938;30.642;2023-04-01T00:20:50;5.50;;;4.07;;
48925;SDS011;39838;59.938;30.642;2023-04-01T00:23:19;5.85;;;4.20;;
48925;SDS011;39838;59.938;30.642;2023-04-01T00:25:46;5.22;;;3.88;;
48925;SDS011;39838;59.938;30.642;2023-04-01T00:28:15;6.38;;;4.22;;
48925;SDS011;39838;59.938;30.642;2023-04-01T00:30:42;4.95;;;3.70;;
48925;SDS011;39838;59.938;30.642;2023-04-01T00:33:11;6.20;;;3.95;;
48925;SDS011;39838;59.938;30.642;2023-04-01T00:35:38;5.22;;;4.00;;
48925;SDS011;39838;59.938;30.642;2023-04-01T00:38:07;5.65;;;3.83;;
48925;SDS011;39838;59.938;30.642;2023-04-01T00:40:36;5.55;;;3.80;;
48925;SDS011;39838;59.938;30.642;2023-04-01T00:43:09;5.47;;;4.10;;
48925;SDS011;39838;59.938;30.642;2023-04-01T00:45:38;6.55;;;4.25;;
48925;SDS011;39838;59.938;30.642;2023-04-01T00:48:08;6.45;;;4.28;;
48925;SDS011;39838;59.938;30.642;2023-04-01T00:50:42;6.55;;;4.30;;
48925;SDS011;39838;59.938;30.642;2023-04-01T00:53:12;6.03;;;4.30;;
48925;SDS011;39838;59.938;30.642;2023-04-01T00:55:41;6.45;;;4.40;;
48925;SDS011;39838;59.938;30.642;2023-04-01T00:58:14;7.25;;;4.30;;
48925;SDS011;39838;59.938;30.642;2023-04-01T01:00:43;6.65;;;4.43;;
48925;SDS011;39838;59.938;30.642;2023-04-01T01:03:14;7.05;;;4.57;;
48925;SDS011;39838;59.938;30.642;2023-04-01T01:05:48;5.75;;;3.83;;
48925;SDS011;39838;59.938;30.642;2023-04-01T01:08:39;6.35;;;4.40;;
48925;SDS011;39838;59.938;30.642;2023-04-01T01:11:19;7.25;;;4.68;;
48925;SDS011;39838;59.938;30.642;2023-04-01T01:13:53;6.88;;;4.10;;
48925;SDS011;39838;59.938;30.642;2023-04-01T01:16:29;6.80;;;4.40;;
48925;SDS011;39838;59.938;30.642;2023-04-01T01:19:02;6.95;;;4.65;;
48925;SDS011;39838;59.938;30.642;2023-04-01T01:21:46;6.55;;;4.55;;
48925;SDS011;39838;59.938;30.642;2023-04-01T01:27:21;7.13;;;4.80;;
48925;SDS011;39838;59.938;30.642;2023-04-01T01:35:45;6.90;;;4.53;;
48925;SDS011;39838;59.938;30.642;2023-04-01T01:38:16;6.55;;;4.68;;
48925;SDS011;39838;59.938;30.642;2023-04-01T01:40:46;6.68;;;4.35;;
48925;SDS011;39838;59.938;30.642;2023-04-01T01:43:19;6.72;;;4.70;;
48925;SDS011;39838;59.938;30.642;2023-04-01T01:45:50;6.72;;;4.43;;
48925;SDS011;39838;59.938;30.642;2023-04-01T01:48:20;7.47;;;5.07;;
48925;SDS011;39838;59.938;30.642;2023-04-01T01:50:49;5.82;;;4.38;;
48925;SDS011;39838;59.938;30.642;2023-04-01T01:53:17;6.60;;;4.38;;
48925;SDS011;39838;59.938;30.642;2023-04-01T01:55:45;7.93;;;4.97;;
48925;SDS011;39838;59.938;30.642;2023-04-01T01:58:15;6.72;;;4.78;;
48925;SDS011;39838;59.938;30.642;2023-04-01T02:00:45;7.55;;;4.80;;
48925;SDS011;39838;59.938;30.642;2023-04-01T02:03:15;5.95;;;4.30;;
48925;SDS011;39838;59.938;30.642;2023-04-01T02:05:43;6.95;;;4.40;;
48925;SDS011;39838;59.938;30.642;2023-04-01T02:08:13;6.38;;;4.60;;
48925;SDS011;39838;59.938;30.642;2023-04-01T02:10:44;6.15;;;4.47;;
48925;SDS011;39838;59.938;30.642;2023-04-01T02:13:15;8.98;;;4.35;;
48925;SDS011;39838;59.938;30.642;2023-04-01T02:15:47;6.90;;;4.82;;
48925;SDS011;39838;59.938;30.642;2023-04-01T02:18:17;7.45;;;4.63;;
48925;SDS011;39838;59.938;30.642;2023-04-01T02:20:46;7.25;;;4.70;;
48925;SDS011;39838;59.938;30.642;2023-04-01T02:23:15;7.25;;;4.65;;
48925;SDS011;39838;59.938;30.642;2023-04-01T02:25:42;7.18;;;4.88;;
48925;SDS011;39838;59.938;30.642;2023-04-01T02:28:12;7.15;;;4.80;;
48925;SDS011;39838;59.938;30.642;2023-04-01T02:30:45;6.88;;;4.82;;
48925;SDS011;39838;59.938;30.642;2023-04-01T02:33:14;6.15;;;4.53;;
48925;SDS011;39838;59.938;30.642;2023-04-01T02:35:43;6.45;;;4.53;;
48925;SDS011;39838;59.938;30.642;2023-04-01T02:38:10;6.55;;;4.50;;
48925;SDS011;39838;59.938;30.642;2023-04-01T02:40:42;7.32;;;4.60;;
48925;SDS011;39838;59.938;30.642;2023-04-01T02:43:11;6.20;;;4.53;;
48925;SDS011;39838;59.938;30.642;2023-04-01T02:45:39;6.28;;;4.20;;
48925;SDS011;39838;59.938;30.642;2023-04-01T02:48:06;6.63;;;4.32;;
48925;SDS011;39838;59.938;30.642;2023-04-01T02:50:33;7.80;;;4.95;;
48925;SDS011;39838;59.938;30.642;2023-04-01T02:53:00;6.75;;;4.65;;
48925;SDS011;39838;59.938;30.642;2023-04-01T02:55:29;5.57;;;4.13;;
48925;SDS011;39838;59.938;30.642;2023-04-01T02:57:58;6.63;;;4.18;;
48925;SDS011;39838;59.938;30.642;2023-04-01T03:00:25;6.05;;;4.20;;
48925;SDS011;39838;59.938;30.642;2023-04-01T03:02:53;5.75;;;4.00;;
48925;SDS011;39838;59.938;30.642;2023-04-01T03:05:20;6.43;;;4.63;;
48925;SDS011;39838;59.938;30.642;2023-04-01T03:07:47;5.78;;;4.03;;
48925;SDS011;39838;59.938;30.642;2023-04-01T03:10:14;5.25;;;4.05;;
48925;SDS011;39838;59.938;30.642;2023-04-01T03:12:42;6.97;;;4.40;;
48925;SDS011;39838;59.938;30.642;2023-04-01T03:15:11;7.80;;;4.20;;
48925;SDS011;39838;59.938;30.642;2023-04-01T03:17:40;5.82;;;4.15;;
48925;SDS011;39838;59.938;30.642;2023-04-01T03:20:08;6.50;;;4.35;;
48925;SDS011;39838;59.938;30.642;2023-04-01T03:22:37;6.95;;;4.30;;
48925;SDS011;39838;59.938;30.642;2023-04-01T03:25:04;6.45;;;4.30;;
48925;SDS011;39838;59.938;30.642;2023-04-01T03:27:32;5.80;;;4.18;;
48925;SDS011;39838;59.938;30.642;2023-04-01T03:30:00;6.00;;;4.07;;
48925;SDS011;39838;59.938;30.642;2023-04-01T03:32:30;6.70;;;4.43;;
48925;SDS011;39838;59.938;30.642;2023-04-01T03:34:58;6.07;;;4.30;;
48925;SDS011;39838;59.938;30.642;2023-04-01T03:37:25;6.13;;;4.40;;
48925;SDS011;39838;59.938;30.642;2023-04-01T03:39:52;6.32;;;3.88;;
48925;SDS011;39838;59.938;30.642;2023-04-01T03:42:19;6.75;;;4.18;;
48925;SDS011;39838;59.938;30.642;2023-04-01T03:44:46;7.57;;;4.38;;
48925;SDS011;39838;59.938;30.642;2023-04-01T03:47:14;7.50;;;4.00;;
48925;SDS011;39838;59.938;30.642;2023-04-01T03:49:42;5.88;;;4.00;;
48925;SDS011;39838;59.938;30.642;2023-04-01T03:52:10;8.60;;;3.83;;
48925;SDS011;39838;59.938;30.642;2023-04-01T03:54:37;6.50;;;4.15;;
48925;SDS011;39838;59.938;30.642;2023-04-01T03:57:04;7.15;;;4.28;;
48925;SDS011;39838;59.938;30.642;2023-04-01T03:59:32;5.70;;;4.18;;
48925;SDS011;39838;59.938;30.642;2023-04-01T04:01:59;10.98;;;4.30;;
48925;SDS011;39838;59.938;30.642;2023-04-01T04:04:27;5.88;;;3.83;;
48925;SDS011;39838;59.938;30.642;2023-04-01T04:06:56;5.70;;;3.97;;
48925;SDS011;39838;59.938;30.642;2023-04-01T04:09:24;6.25;;;4.10;;
48925;SDS011;39838;59.938;30.642;2023-04-01T04:11:51;5.30;;;3.80;;
48925;SDS011;39838;59.938;30.642;2023-04-01T04:14:18;6.68;;;4.30;;
48925;SDS011;39838;59.938;30.642;2023-04-01T04:16:45;6.10;;;4.30;;
48925;SDS011;39838;59.938;30.642;2023-04-01T04:19:12;5.97;;;4.03;;
48925;SDS011;39838;59.938;30.642;2023-04-01T04:21:39;5.13;;;4.05;;
48925;SDS011;39838;59.938;30.642;2023-04-01T04:24:08;5.47;;;3.85;;
48925;SDS011;39838;59.938;30.642;2023-04-01T04:26:36;6.20;;;3.95;;
48925;SDS011;39838;59.938;30.642;2023-04-01T04:29:03;5.40;;;4.03;;
48925;SDS011;39838;59.938;30.642;2023-04-01T04:31:30;5.85;;;3.90;;
48925;SDS011;39838;59.938;30.642;2023-04-01T04:33:58;7.53;;;4.05;;
48925;SDS011;39838;59.938;30.642;2023-04-01T04:36:26;6.30;;;4.30;;
48925;SDS011;39838;59.938;30.642;2023-04-01T04:38:53;6.88;;;4.15;;
48925;SDS011;39838;59.938;30.642;2023-04-01T04:41:21;7.07;;;3.70;;
48925;SDS011;39838;59.938;30.642;2023-04-01T04:43:49;9.23;;;4.13;;
48925;SDS011;39838;59.938;30.642;2023-04-01T04:46:17;6.68;;;4.22;;
48925;SDS011;39838;59.938;30.642;2023-04-01T04:48:45;5.63;;;3.80;;
48925;SDS011;39838;59.938;30.642;2023-04-01T04:51:13;5.97;;;3.83;;
48925;SDS011;39838;59.938;30.642;2023-04-01T04:53:41;6.00;;;4.00;;
48925;SDS011;39838;59.938;30.642;2023-04-01T04:56:09;5.97;;;3.60;;
48925;SDS011;39838;59.938;30.642;2023-04-01T04:58:38;5.45;;;3.75;;
48925;SDS011;39838;59.938;30.642;2023-04-01T05:01:06;5.70;;;3.50;;
48925;SDS011;39838;59.938;30.642;2023-04-01T05:03:34;6.03;;;3.83;;
48925;SDS011;39838;59.938;30.642;2023-04-01T05:06:01;5.15;;;3.60;;
48925;SDS011;39838;59.938;30.642;2023-04-01T05:08:28;5.65;;;3.78;;
48925;SDS011;39838;59.938;30.642;2023-04-01T05:10:55;4.70;;;3.30;;
48925;SDS011;39838;59.938;30.642;2023-04-01T05:13:22;4.65;;;3.30;;
48925;SDS011;39838;59.938;30.642;2023-04-01T05:15:51;4.72;;;3.35;;
48925;SDS011;39838;59.938;30.642;2023-04-01T05:18:18;4.10;;;3.17;;
48925;SDS011;39838;59.938;30.642;2023-04-01T05:20:46;5.57;;;3.45;;
48925;SDS011;39838;59.938;30.642;2023-04-01T05:23:14;4.65;;;3.20;;
48925;SDS011;39838;59.938;30.642;2023-04-01T05:25:41;4.82;;;3.40;;
48925;SDS011;39838;59.938;30.642;2023-04-01T05:28:10;4.68;;;3.30;;
48925;SDS011;39838;59.938;30.642;2023-04-01T05:30:39;4.40;;;3.53;;
48925;SDS011;39838;59.938;30.642;2023-04-01T05:33:08;4.95;;;3.47;;
48925;SDS011;39838;59.938;30.642;2023-04-01T05:35:36;5.40;;;3.22;;
48925;SDS011;39838;59.938;30.642;2023-04-01T05:38:03;4.80;;;3.70;;
48925;SDS011;39838;59.938;30.642;2023-04-01T05:40:31;4.88;;;3.60;;
48925;SDS011;39838;59.938;30.642;2023-04-01T05:42:58;4.43;;;3.20;;
48925;SDS011;39838;59.938;30.642;2023-04-01T05:45:26;4.85;;;3.25;;
48925;SDS011;39838;59.938;30.642;2023-04-01T05:47:53;5.63;;;3.60;;
48925;SDS011;39838;59.938;30.642;2023-04-01T05:50:22;4.28;;;3.30;;
48925;SDS011;39838;59.938;30.642;2023-04-01T05:52:49;5.00;;;3.30;;
48925;SDS011;39838;59.938;30.642;2023-04-01T05:55:16;5.18;;;3.50;;
48925;SDS011;39838;59.938;30.642;2023-04-01T05:57:44;5.40;;;3.70;;
48925;SDS011;39838;59.938;30.642;2023-04-01T06:00:12;5.40;;;3.55;;
48925;SDS011;39838;59.938;30.642;2023-04-01T06:02:39;4.80;;;3.30;;
48925;SDS011;39838;59.938;30.642;2023-04-01T06:05:14;4.88;;;3.72;;
48925;SDS011;39838;59.938;30.642;2023-04-01T06:07:46;5.20;;;3.63;;
48925;SDS011;39838;59.938;30.642;2023-04-01T06:10:14;5.05;;;3.60;;
48925;SDS011;39838;59.938;30.642;2023-04-01T06:12:55;4.72;;;3.42;;
48925;SDS011;39838;59.938;30.642;2023-04-01T06:15:34;5.18;;;3.83;;
48925;SDS011;39838;59.938;30.642;2023-04-01T06:21:07;4.68;;;3.63;;
48925;SDS011;39838;59.938;30.642;2023-04-01T06:23:52;4.47;;;3.40;;
48925;SDS011;39838;59.938;30.642;2023-04-01T06:26:30;4.82;;;3.30;;
48925;SDS011;39838;59.938;30.642;2023-04-01T06:32:22;4.03;;;3.00;;
48925;SDS011;39838;59.938;30.642;2023-04-01T06:35:14;4.03;;;3.28;;
48925;SDS011;39838;59.938;30.642;2023-04-01T06:38:07;3.70;;;3.00;;
48925;SDS011;39838;59.938;30.642;2023-04-01T06:40:57;4.22;;;3.22;;
48925;SDS011;39838;59.938;30.642;2023-04-01T06:43:44;4.20;;;2.90;;
48925;SDS011;39838;59.938;30.642;2023-04-01T06:46:24;4.13;;;3.00;;
48925;SDS011;39838;59.938;30.642;2023-04-01T06:49:02;4.18;;;3.13;;
48925;SDS011;39838;59.938;30.642;2023-04-01T06:51:45;4.05;;;3.08;;
48925;SDS011;39838;59.938;30.642;2023-04-01T06:54:20;4.75;;;3.20;;
48925;SDS011;39838;59.938;30.642;2023-04-01T06:56:54;4.50;;;3.10;;
48925;SDS011;39838;59.938;30.642;2023-04-01T06:59:26;5.13;;;3.25;;
48925;SDS011;39838;59.938;30.642;2023-04-01T07:01:57;4.00;;;2.95;;
48925;SDS011;39838;59.938;30.642;2023-04-01T07:04:29;3.58;;;2.90;;
48925;SDS011;39838;59.938;30.642;2023-04-01T07:06:59;4.40;;;3.30;;
48925;SDS011;39838;59.938;30.642;2023-04-01T07:09:31;3.22;;;2.72;;
48925;SDS011;39838;59.938;30.642;2023-04-01T07:12:04;4.80;;;3.30;;
48925;SDS011;39838;59.938;30.642;2023-04-01T07:14:39;4.28;;;3.30;;
48925;SDS011;39838;59.938;30.642;2023-04-01T07:17:11;4.43;;;3.10;;
48925;SDS011;39838;59.938;30.642;2023-04-01T07:19:42;4.10;;;3.05;;
48925;SDS011;39838;59.938;30.642;2023-04-01T07:22:16;3.70;;;3.00;;
48925;SDS011;39838;59.938;30.642;2023-04-01T07:24:53;4.20;;;3.30;;
48925;SDS011;39838;59.938;30.642;2023-04-01T07:27:24;5.65;;;3.00;;
48925;SDS011;39838;59.938;30.642;2023-04-01T07:29:52;4.03;;;3.13;;
48925;SDS011;39838;59.938;30.642;2023-04-01T07:32:24;4.50;;;3.10;;
48925;SDS011;39838;59.938;30.642;2023-04-01T07:35:07;4.28;;;3.05;;
48925;SDS011;39838;59.938;30.642;2023-04-01T07:37:43;5.80;;;3.22;;
48925;SDS011;39838;59.938;30.642;2023-04-01T07:40:21;4.75;;;3.15;;
48925;SDS011;39838;59.938;30.642;2023-04-01T07:43:02;4.70;;;3.35;;
48925;SDS011;39838;59.938;30.642;2023-04-01T07:45:42;5.32;;;3.58;;
48925;SDS011;39838;59.938;30.642;2023-04-01T07:48:18;5.57;;;3.15;;
48925;SDS011;39838;59.938;30.642;2023-04-01T07:50:53;4.55;;;3.13;;
48925;SDS011;39838;59.938;30.642;2023-04-01T07:53:29;5.68;;;3.28;;
48925;SDS011;39838;59.938;30.642;2023-04-01T07:56:03;5.18;;;3.25;;
48925;SDS011;39838;59.938;30.642;2023-04-01T07:58:36;5.30;;;3.40;;
48925;SDS011;39838;59.938;30.642;2023-04-01T08:01:12;4.75;;;2.90;;
48925;SDS011;39838;59.938;30.642;2023-04-01T08:03:52;4.00;;;3.00;;
48925;SDS011;39838;59.938;30.642;2023-04-01T08:09:01;4.68;;;3.20;;
48925;SDS011;39838;59.938;30.642;2023-04-01T08:11:41;4.65;;;3.20;;
48925;SDS011;39838;59.938;30.642;2023-04-01T08:14:20;4.53;;;3.13;;
48925;SDS011;39838;59.938;30.642;2023-04-01T08:16:57;4.57;;;3.17;;
48925;SDS011;39838;59.938;30.642;2023-04-01T08:19:31;4.13;;;3.20;;
48925;SDS011;39838;59.938;30.642;2023-04-01T08:22:15;4.55;;;3.30;;
48925;SDS011;39838;59.938;30.642;2023-04-01T08:24:46;4.15;;;3.00;;
48925;SDS011;39838;59.938;30.642;2023-04-01T08:27:17;5.85;;;3.05;;
48925;SDS011;39838;59.938;30.642;2023-04-01T08:29:50;5.65;;;3.30;;
48925;SDS011;39838;59.938;30.642;2023-04-01T08:32:23;4.43;;;3.20;;
48925;SDS011;39838;59.938;30.642;2023-04-01T08:35:02;4.10;;;3.10;;
48925;SDS011;39838;59.938;30.642;2023-04-01T08:37:36;4.35;;;3.08;;
48925;SDS011;39838;59.938;30.642;2023-04-01T08:40:13;6.35;;;3.20;;
48925;SDS011;39838;59.938;30.642;2023-04-01T08:42:57;6.60;;;3.40;;
48925;SDS011;39838;59.938;30.642;2023-04-01T08:45:50;6.30;;;3.83;;
48925;SDS011;39838;59.938;30.642;2023-04-01T08:48:36;7.13;;;3.38;;
48925;SDS011;39838;59.938;30.642;2023-04-01T08:51:18;5.07;;;3.22;;
48925;SDS011;39838;59.938;30.642;2023-04-01T08:54:09;4.50;;;3.20;;
48925;SDS011;39838;59.938;30.642;2023-04-01T08:56:59;4.78;;;3.47;;
48925;SDS011;39838;59.938;30.642;2023-04-01T08:59:47;4.57;;;3.15;;
48925;SDS011;39838;59.938;30.642;2023-04-01T09:02:30;4.53;;;3.17;;
48925;SDS011;39838;59.938;30.642;2023-04-01T09:08:29;6.82;;;3.25;;
48925;SDS011;39838;59.938;30.642;2023-04-01T09:11:06;4.00;;;2.92;;
48925;SDS011;39838;59.938;30.642;2023-04-01T09:13:46;4.97;;;3.40;;
48925;SDS011;39838;59.938;30.642;2023-04-01T09:16:31;3.90;;;3.00;;
48925;SDS011;39838;59.938;30.642;2023-04-01T09:19:26;5.72;;;3.60;;
48925;SDS011;39838;59.938;30.642;2023-04-01T09:25:16;5.13;;;3.37;;
48925;SDS011;39838;59.938;30.642;2023-04-01T09:27:55;8.40;;;4.05;;
48925;SDS011;39838;59.938;30.642;2023-04-01T09:30:31;4.38;;;3.20;;
48925;SDS011;39838;59.938;30.642;2023-04-01T09:36:16;5.22;;;3.63;;
48925;SDS011;39838;59.938;30.642;2023-04-01T09:38:55;4.25;;;3.28;;
48925;SDS011;39838;59.938;30.642;2023-04-01T09:41:28;13.60;;;4.57;;
48925;SDS011;39838;59.938;30.642;2023-04-01T09:44:00;3.85;;;3.10;;
48925;SDS011;39838;59.938;30.642;2023-04-01T09:46:34;3.80;;;2.90;;
48925;SDS011;39838;59.938;30.642;2023-04-01T09:52:20;4.38;;;3.15;;
48925;SDS011;39838;59.938;30.642;2023-04-01T09:55:06;4.50;;;2.85;;
48925;SDS011;39838;59.938;30.642;2023-04-01T10:04:12;4.50;;;3.00;;
48925;SDS011;39838;59.938;30.642;2023-04-01T10:10:27;4.32;;;3.17;;
48925;SDS011;39838;59.938;30.642;2023-04-01T10:13:24;4.45;;;3.28;;
48925;SDS011;39838;59.938;30.642;2023-04-01T10:22:39;3.80;;;3.00;;
48925;SDS011;39838;59.938;30.642;2023-04-01T10:25:33;4.25;;;3.28;;
48925;SDS011;39838;59.938;30.642;2023-04-01T10:28:30;5.20;;;3.58;;
48925;SDS011;39838;59.938;30.642;2023-04-01T10:34:20;4.82;;;3.08;;
48925;SDS011;39838;59.938;30.642;2023-04-01T10:36:59;4.57;;;3.35;;
48925;SDS011;39838;59.938;30.642;2023-04-01T10:39:56;4.50;;;3.03;;
48925;SDS011;39838;59.938;30.642;2023-04-01T10:51:57;5.82;;;3.97;;
48925;SDS011;39838;59.938;30.642;2023-04-01T10:54:49;4.43;;;3.22;;
48925;SDS011;39838;59.938;30.642;2023-04-01T10:57:36;4.97;;;3.40;;
48925;SDS011;39838;59.938;30.642;2023-04-01T11:00:28;5.50;;;3.80;;
48925;SDS011;39838;59.938;30.642;2023-04-01T11:22:10;4.78;;;3.60;;
48925;SDS011;39838;59.938;30.642;2023-04-01T11:25:06;4.90;;;3.53;;
48925;SDS011;39838;59.938;30.642;2023-04-01T11:27:59;4.35;;;3.47;;
48925;SDS011;39838;59.938;30.642;2023-04-01T11:30:53;5.47;;;3.50;;
48925;SDS011;39838;59.938;30.642;2023-04-01T11:33:33;5.05;;;3.63;;
48925;SDS011;39838;59.938;30.642;2023-04-01T11:36:12;6.80;;;3.57;;
48925;SDS011;39838;59.938;30.642;2023-04-01T11:38:53;5.30;;;3.53;;
48925;SDS011;39838;59.938;30.642;2023-04-01T11:41:32;5.45;;;3.60;;
48925;SDS011;39838;59.938;30.642;2023-04-01T11:44:10;7.30;;;3.97;;
48925;SDS011;39838;59.938;30.642;2023-04-01T11:46:50;5.15;;;4.00;;
48925;SDS011;39838;59.938;30.642;2023-04-01T11:49:44;6.27;;;3.90;;
48925;SDS011;39838;59.938;30.642;2023-04-01T11:52:32;5.85;;;3.80;;
48925;SDS011;39838;59.938;30.642;2023-04-01T11:55:21;5.75;;;4.10;;
48925;SDS011;39838;59.938;30.642;2023-04-01T11:58:03;6.05;;;4.07;;
48925;SDS011;39838;59.938;30.642;2023-04-01T12:00:49;6.18;;;4.13;;
48925;SDS011;39838;59.938;30.642;2023-04-01T12:06:21;5.05;;;3.70;;
48925;SDS011;39838;59.938;30.642;2023-04-01T12:08:53;5.68;;;4.07;;
48925;SDS011;39838;59.938;30.642;2023-04-01T12:11:29;5.38;;;3.72;;
48925;SDS011;39838;59.938;30.642;2023-04-01T12:14:09;5.25;;;3.80;;
48925;SDS011;39838;59.938;30.642;2023-04-01T12:16:46;4.82;;;3.55;;
48925;SDS011;39838;59.938;30.642;2023-04-01T12:19:26;5.75;;;3.80;;
48925;SDS011;39838;59.938;30.642;2023-04-01T12:24:47;8.90;;;5.55;;
48925;SDS011;39838;59.938;30.642;2023-04-01T12:30:10;4.63;;;3.67;;
48925;SDS011;39838;59.938;30.642;2023-04-01T12:32:52;6.13;;;4.20;;
48925;SDS011;39838;59.938;30.642;2023-04-01T12:35:29;7.70;;;3.45;;
48925;SDS011;39838;59.938;30.642;2023-04-01T12:38:07;4.93;;;3.60;;
48925;SDS011;39838;59.938;30.642;2023-04-01T12:46:35;6.50;;;3.75;;
48925;SDS011;39838;59.938;30.642;2023-04-01T12:52:23;7.10;;;5.32;;
48925;SDS011;39838;59.938;30.642;2023-04-01T12:58:14;7.20;;;4.40;;
48925;SDS011;39838;59.938;30.642;2023-04-01T13:03:58;5.25;;;3.95;;
48925;SDS011;39838;59.938;30.642;2023-04-01T13:06:46;5.60;;;4.00;;
48925;SDS011;39838;59.938;30.642;2023-04-01T13:09:30;5.00;;;3.83;;
48925;SDS011;39838;59.938;30.642;2023-04-01T13:12:10;7.15;;;3.72;;
48925;SDS011;39838;59.938;30.642;2023-04-01T13:15:13;5.57;;;3.72;;
48925;SDS011;39838;59.938;30.642;2023-04-01T13:17:53;6.10;;;4.47;;
48925;SDS011;39838;59.938;30.642;2023-04-01T13:20:38;5.85;;;3.80;;
48925;SDS011;39838;59.938;30.642;2023-04-01T13:23:17;6.38;;;3.55;;
48925;SDS011;39838;59.938;30.642;2023-04-01T13:28:29;5.28;;;3.80;;
48925;SDS011;39838;59.938;30.642;2023-04-01T13:31:01;4.80;;;3.55;;
48925;SDS011;39838;59.938;30.642;2023-04-01T13:33:35;5.20;;;3.55;;
48925;SDS011;39838;59.938;30.642;2023-04-01T13:36:11;5.15;;;3.50;;
48925;SDS011;39838;59.938;30.642;2023-04-01T13:38:50;5.05;;;3.60;;
48925;SDS011;39838;59.938;30.642;2023-04-01T13:41:38;4.75;;;3.25;;
48925;SDS011;39838;59.938;30.642;2023-04-01T13:44:16;5.07;;;3.47;;
48925;SDS011;39838;59.938;30.642;2023-04-01T13:49:45;4.60;;;3.40;;
48925;SDS011;39838;59.938;30.642;2023-04-01T13:55:19;4.70;;;3.30;;
48925;SDS011;39838;59.938;30.642;2023-04-01T13:58:05;4.90;;;3.50;;
48925;SDS011;39838;59.938;30.642;2023-04-01T14:00:50;6.43;;;3.67;;
48925;SDS011;39838;59.938;30.642;2023-04-01T14:06:34;3.72;;;2.63;;
48925;SDS011;39838;59.938;30.642;2023-04-01T14:12:16;3.38;;;2.80;;
48925;SDS011;39838;59.938;30.642;2023-04-01T14:14:59;5.15;;;2.90;;
48925;SDS011;39838;59.938;30.642;2023-04-01T14:17:47;4.22;;;3.10;;
48925;SDS011;39838;59.938;30.642;2023-04-01T14:20:29;5.22;;;3.10;;
48925;SDS011;39838;59.938;30.642;2023-04-01T14:29:14;6.13;;;3.28;;
48925;SDS011;39838;59.938;30.642;2023-04-01T14:31:59;4.85;;;3.10;;
48925;SDS011;39838;59.938;30.642;2023-04-01T14:34:46;5.68;;;2.92;;
48925;SDS011;39838;59.938;30.642;2023-04-01T14:37:29;4.82;;;2.95;;
48925;SDS011;39838;59.938;30.642;2023-04-01T14:40:15;5.95;;;3.28;;
48925;SDS011;39838;59.938;30.642;2023-04-01T14:45:50;5.20;;;3.20;;
48925;SDS011;39838;59.938;30.642;2023-04-01T14:48:29;5.22;;;2.95;;
48925;SDS011;39838;59.938;30.642;2023-04-01T14:51:02;3.10;;;2.80;;
48925;SDS011;39838;59.938;30.642;2023-04-01T14:53:36;3.58;;;2.50;;
48925;SDS011;39838;59.938;30.642;2023-04-01T14:56:11;5.00;;;3.20;;
48925;SDS011;39838;59.938;30.642;2023-04-01T14:58:43;4.05;;;2.58;;
48925;SDS011;39838;59.938;30.642;2023-04-01T15:01:30;2.90;;;2.40;;
48925;SDS011;39838;59.938;30.642;2023-04-01T15:04:13;3.45;;;2.60;;
48925;SDS011;39838;59.938;30.642;2023-04-01T15:07:06;4.90;;;3.00;;
48925;SDS011;39838;59.938;30.642;2023-04-01T15:09:49;3.78;;;2.50;;
48925;SDS011;39838;59.938;30.642;2023-04-01T15:12:26;3.70;;;2.70;;
48925;SDS011;39838;59.938;30.642;2023-04-01T15:15:02;3.33;;;2.63;;
48925;SDS011;39838;59.938;30.642;2023-04-01T15:17:51;4.22;;;2.60;;
48925;SDS011;39838;59.938;30.642;2023-04-01T15:23:38;5.13;;;2.55;;
48925;SDS011;39838;59.938;30.642;2023-04-01T15:26:19;4.57;;;2.45;;
48925;SDS011;39838;59.938;30.642;2023-04-01T15:29:02;3.35;;;2.55;;
48925;SDS011;39838;59.938;30.642;2023-04-01T15:34:23;3.28;;;2.40;;
48925;SDS011;39838;59.938;30.642;2023-04-01T15:37:00;5.10;;;2.63;;
48925;SDS011;39838;59.938;30.642;2023-04-01T15:39:40;7.85;;;2.92;;
48925;SDS011;39838;59.938;30.642;2023-04-01T15:42:24;3.50;;;2.60;;
48925;SDS011;39838;59.938;30.642;2023-04-01T15:47:54;3.90;;;2.60;;
48925;SDS011;39838;59.938;30.642;2023-04-01T15:50:50;4.35;;;2.80;;
48925;SDS011;39838;59.938;30.642;2023-04-01T15:53:25;3.92;;;2.70;;
48925;SDS011;39838;59.938;30.642;2023-04-01T15:56:14;3.55;;;2.60;;
48925;SDS011;39838;59.938;30.642;2023-04-01T15:58:50;4.72;;;2.80;;
48925;SDS011;39838;59.938;30.642;2023-04-01T16:01:27;4.53;;;3.10;;
48925;SDS011;39838;59.938;30.642;2023-04-01T16:04:06;6.07;;;3.20;;
48925;SDS011;39838;59.938;30.642;2023-04-01T16:09:28;4.18;;;3.15;;
48925;SDS011;39838;59.938;30.642;2023-04-01T16:12:15;4.07;;;2.80;;
48925;SDS011;39838;59.938;30.642;2023-04-01T16:14:49;4.00;;;3.08;;
48925;SDS011;39838;59.938;30.642;2023-04-01T16:17:31;5.63;;;3.65;;
48925;SDS011;39838;59.938;30.642;2023-04-01T16:20:20;5.40;;;3.28;;
48925;SDS011;39838;59.938;30.642;2023-04-01T16:22:54;4.63;;;3.22;;
48925;SDS011;39838;59.938;30.642;2023-04-01T16:25:29;6.13;;;2.97;;
48925;SDS011;39838;59.938;30.642;2023-04-01T16:28:04;4.10;;;3.00;;
48925;SDS011;39838;59.938;30.642;2023-04-01T16:30:43;6.35;;;3.10;;
48925;SDS011;39838;59.938;30.642;2023-04-01T16:33:17;4.20;;;3.00;;
48925;SDS011;39838;59.938;30.642;2023-04-01T16:35:53;4.35;;;2.85;;
48925;SDS011;39838;59.938;30.642;2023-04-01T16:38:31;7.15;;;3.05;;
48925;SDS011;39838;59.938;30.642;2023-04-01T16:41:10;6.50;;;3.10;;
48925;SDS011;39838;59.938;30.642;2023-04-01T16:43:41;4.65;;;3.10;;
48925;SDS011;39838;59.938;30.642;2023-04-01T16:46:18;5.18;;;2.70;;
48925;SDS011;39838;59.938;30.642;2023-04-01T16:49:04;6.60;;;3.28;;
48925;SDS011;39838;59.938;30.642;2023-04-01T16:51:44;6.07;;;2.88;;
48925;SDS011;39838;59.938;30.642;2023-04-01T16:54:18;4.70;;;2.90;;
48925;SDS011;39838;59.938;30.642;2023-04-01T16:56:56;5.53;;;3.20;;
48925;SDS011;39838;59.938;30.642;2023-04-01T16:59:34;6.70;;;3.67;;
48925;SDS011;39838;59.938;30.642;2023-04-01T17:02:03;6.50;;;3.22;;
48925;SDS011;39838;59.938;30.642;2023-04-01T17:04:37;5.50;;;3.45;;
48925;SDS011;39838;59.938;30.642;2023-04-01T17:07:21;7.45;;;3.80;;
48925;SDS011;39838;59.938;30.642;2023-04-01T17:10:03;9.63;;;4.80;;
48925;SDS011;39838;59.938;30.642;2023-04-01T17:12:44;10.07;;;4.97;;
48925;SDS011;39838;59.938;30.642;2023-04-01T17:15:21;9.57;;;5.13;;
48925;SDS011;39838;59.938;30.642;2023-04-01T17:18:01;8.75;;;4.90;;
48925;SDS011;39838;59.938;30.642;2023-04-01T17:20:38;8.35;;;4.75;;
48925;SDS011;39838;59.938;30.642;2023-04-01T17:23:12;8.40;;;4.68;;
48925;SDS011;39838;59.938;30.642;2023-04-01T17:25:51;10.00;;;5.13;;
48925;SDS011;39838;59.938;30.642;2023-04-01T17:28:40;11.93;;;5.80;;
48925;SDS011;39838;59.938;30.642;2023-04-01T17:31:18;9.20;;;5.15;;
48925;SDS011;39838;59.938;30.642;2023-04-01T17:34:00;8.32;;;5.10;;
48925;SDS011;39838;59.938;30.642;2023-04-01T17:36:44;7.40;;;4.65;;
48925;SDS011;39838;59.938;30.642;2023-04-01T17:39:25;10.52;;;5.07;;